Decoded METAR Reports


Created by using MetarWeather

Station Name Location Elevation Time Temperature Dew Point RH Heat Index Wind Visibility Pressure Sky Condition Weather Remarks METAR
Alexandroupolis  40.85N 25.92E  3m  31/07/2014 07:20:00  22.0C  19.0C  83%  21.7C  Calm  > 10000m  1008.1 mb           LGAL 310420Z 00000KT CAVOK 22/19 Q1008 
Andravida (Civ/A  37.92N 21.27E  12m  31/07/2014 07:20:00  19.0C  15.0C  78%  N/A  Calm  > 10000m  1007.1 mb  Few clouds at 760m
 
      LGAD 310420Z 00000KT 9999 FEW025 19/15 Q1007 
Araxos (Civ/Afb)  38.17N 21.42E  15m  31/07/2014 07:20:00  20.0C  16.0C  78%  N/A  Calm  > 10000m  1007.1 mb  Few clouds at 760m
 
      LGRX 310420Z 00000KT 9999 FEW025 20/16 Q1007 NOSIG 
Athens/Elef-Ven  37.93N 23.95E  94m  31/07/2014 07:20:00  24.0C  19.0C  74%  24.7C  2 km/h, Variable  > 10000m  1008.1 mb  Scattered clouds at 760m
 
      LGAV 310420Z VRB01KT 9999 SCT025 24/19 Q1008 NOSIG 
Chios Airport  38.32N 26.12E  4m  31/07/2014 06:50:00  21.0C  16.0C  73%  N/A  Calm  > 10000m  1006.1 mb           LGHI 310350Z 00000KT CAVOK 21/16 Q1006 
Elefsis (Hel-Afb  38.07N 23.55E  31m  31/07/2014 07:20:00  25.0C  17.0C  61%  26.0C  6 km/h, Variable  > 10000m  1007.1 mb  Few clouds at 2100m
 
      LGEL 310420Z VRB03KT 9999 FEW070 25/17 Q1007 NOSIG 
Ioannis Kapodist  39.60N 19.92E  2m  31/07/2014 07:20:00  20.0C  19.0C  94%  N/A  20 km/h, E (90 degrees)  > 10000m  1007.1 mb  Scattered clouds at 370m
Few Cumulonimbus clouds at 550m
Scattered clouds at 910m
Broken clouds at 2400m
 
      LGKR 310420Z 09011KT 9999 SCT012 FEW018CB SCT030 BKN080 20/19 Q1007 NOSIG 
Iraklion (Civ/Af  35.32N 25.17E  39m  31/07/2014 07:20:00  23.0C  15.0C  61%  24.7C  9 km/h, S (180 degrees)  > 10000m  1007.1 mb           LGIR 310420Z 18005KT CAVOK 23/15 Q1007 NOSIG 
Kalamata (Hel-Af  37.07N 22.02E  8m  31/07/2014 07:20:00  19.0C  16.0C  83%  N/A  Calm  > 10000m  1008.1 mb           LGKL 310420Z 00000KT CAVOK 19/16 Q1008 
Karpathos  35.42N 27.15E  20m  31/07/2014 06:50:00  25.0C  21.0C  79%  25.9C  13 km/h, WSW (250 degrees)  > 10000m  1005.1 mb           LGKP 310350Z 25007KT CAVOK 25/21 Q1005 
Kavala/Chrisoupo  40.92N 24.62E  5m  31/07/2014 07:20:00  24.0C  22.0C  89%  23.7C  9 km/h, NE (50 degrees)  > 10000m  1008.1 mb  Few clouds at 760m
 
      LGKV 310420Z 05005KT 9999 FEW025 24/22 Q1008 
Kefallinia  38.12N 20.50E  18m  31/07/2014 06:50:00  24.0C  23.0C  94%  23.2C  6 km/h, Variable  > 10000m  1008.1 mb  Scattered clouds at 550m
Broken clouds at 2400m
 
      LGKF 310350Z VRB03KT 9999 SCT018 BKN080 24/23 Q1008 
Kos Airport  36.80N 27.08E  130m  31/07/2014 07:20:00  24.0C  19.0C  74%  24.7C  7 km/h, NW (320 degrees)  > 10000m  1006.1 mb           LGKO 310420Z 32004KT CAVOK 24/19 Q1006 
Kozani (Civ/Army  40.28N 21.85E  630m  31/07/2014 06:50:00  19.0C  17.0C  88%  N/A  9 km/h, NNW (340 degrees)    1010.2 mb           LGKZ 310350Z AUTO 34005KT //// // ////// 19/17 Q1010 RE// 
Limnos Island Ar  39.92N 25.23E  5m  31/07/2014 07:20:00  24.0C  21.0C  83%  24.1C  Calm  > 10000m  1007.1 mb           LGLM 310420Z 00000KT CAVOK 24/21 Q1007 
Mikonos Island  37.43N 25.35E  120m  31/07/2014 06:50:00  24.0C  18.0C  69%  25.0C  Calm  > 10000m  1008.1 mb           LGMK 310350Z 00000KT CAVOK 24/18 Q1008 
Mitilini  39.05N 26.60E  17m  31/07/2014 06:50:00  24.0C  17.0C  65%  25.1C  4 km/h, Variable  > 10000m  1008.1 mb           LGMT 310350Z VRB02KT CAVOK 24/17 Q1008 
Paros  37.00N 25.07E  36m  31/07/2014 06:50:00  24.0C  18.0C  69%  25.0C  Calm  > 10000m  1008.1 mb           LGPA 310350Z 00000KT CAVOK 24/18 Q1008 
Preveza/Aktion  38.62N 20.77E  4m  31/07/2014 06:50:00  23.0C  19.0C  78%  23.3C  9 km/h, ESE (110 degrees)  > 10000m  1008.1 mb  Few cumulus clouds at 610m
Scattered clouds at 760m
 
      LGPZ 310350Z 11005KT 9999 FEW020TCU SCT025 23/19 Q1008 NOSIG 
Rhodes/Diagoras  36.40N 28.08E  5m  31/07/2014 07:20:00  28.0C  20.0C  62%  29.7C  17 km/h, WSW (240 degrees)  > 10000m  1005.1 mb           LGRP 310420Z 24009KT CAVOK 28/20 Q1005 NOSIG 
Samos Airport  37.68N 26.92E  6m  31/07/2014 07:20:00  27.0C  18.0C  58%  27.9C  Calm  > 10000m  1007.1 mb           LGSM 310420Z 00000KT CAVOK 27/18 Q1007 
Santorini Island  36.40N 25.48E  40m  31/07/2014 06:50:00  25.0C  21.0C  79%  25.9C  9 km/h, W (280 degrees)  > 10000m  1007.1 mb           LGSR 310350Z 28005KT CAVOK 25/21 Q1007 NOSIG 
Skiathos Island  39.18N 23.50E  15m  31/07/2014 06:50:00  26.0C  21.0C  74%  27.4C  Calm  > 10000m  1007.1 mb  Broken clouds at 910m
 
      LGSK 310350Z 00000KT 9999 BKN030 26/21 Q1007 
Souda/Khania (Af  35.47N 24.12E  150m  31/07/2014 07:20:00  26.0C  18.0C  61%  27.0C  Calm  > 10000m  1009.1 mb           LGSA 310420Z 00000KT CAVOK 26/18 Q1009 
Syros  37.42N 24.95E  72m  31/07/2014 06:50:00  26.0C  16.0C  54%  26.7C  Calm    1008.1 mb           LGSO 310350Z AUTO 00000KT //// // ////// 26/16 Q1008 RE// 
Thessaloniki/Mik  40.52N 22.97E  7m  31/07/2014 07:20:00  24.0C  21.0C  83%  24.1C  4 km/h, Variable  > 10000m  1007.1 mb  Few clouds at 760m
Broken clouds at 2400m
 
      LGTS 310420Z VRB02KT 9999 FEW025 BKN080 24/21 Q1007 NOSIG 
Zakinthos Airpor  37.75N 20.87E  3m  31/07/2014 06:50:00  23.0C  22.0C  94%  21.2C  Calm  > 10000m  1007.1 mb  Scattered clouds at 430m
 
      LGZA 310350Z 00000KT 9999 SCT014 23/22 Q1007